Wailuku, HI (96793)

11:36 PM HST on December 19, 2014 (GMT -1000)
Kehalani | Change Station
CLOSE
Current Station
Personal Weather Station
Location: Wailuku, HI
Elevation: 358 ft
Nearby Weather Stations

Elev 358 ft 20.87 °N, 156.50 °W | Updated 10 minutes ago

Scattered Clouds
Scattered Clouds
72.0 °F
Feels Like 73 °F
N
6.3
Wind Variable Wind from WNW

Today
High -- | Low -- °F
--% Chance of Precip.
Yesterday
High -- | Low -- °F
Precip. -- in
6:57 AM 5:49 PM
Waning Crescent, 4% visible
Pressure 30.04 in
Visibility 10.0 miles
Clouds Scattered Clouds 4200 ft
Heat Index 73 °F
Dew Point 65 °F
Humidity 79%
Rainfall 0.00 in
Snow Depth Not available.
UV 0 out of 12
Pollen Not available.
Air Quality Not available.
Flu Activity Not available.
METAR PHOG 200854Z 00000KT 10SM SCT042 21/17 A3003 RMK AO2 SLP173 T02060172 50004 $

More Conditions Fewer Conditions

Pressure 30.04 in
Visibility 10.0 miles
Clouds Scattered Clouds 4200 ft
Heat Index 73 °F
Dew Point 65 °F
Humidity 79%
Rainfall 0.00 in
Snow Depth Not available.
UV 0 out of 12
Pollen Not available.
Air Quality Not available.
Flu Activity Not available.
METAR PHOG 200854Z 00000KT 10SM SCT042 21/17 A3003 RMK AO2 SLP173 T02060172 50004 $

More Conditions Fewer Conditions

10-Day Weather Forecast

Almanac

Astronomy

Dec. 19, 2014 Rise Set
Actual Time
Civil Twilight
Nautical Twilight
Astronomical Twilight
Moon
Length of Visible Light
Length of Day
Tomorrow will be .
, % of the Moon is Illuminated

Today's Extremes

State Highs State Lows

Community

WunderPhotos

Upload Photos

1,779,146 photos uploaded!

WunderBlogs® & News

Nearby

Air Quality

  Air Quality AQ Index Pollutant
Not available.

Snow Depth

Station Depth Elevation

Earthquake Activity

City Distance Mag. Time & Date
Minimum magnitude displayed is 2.5.

Coastal Water Temperatures

Place Temperature

Nearby Weather Stations